createdAt,value
2023-04-30T00:00:54.376Z,94960.00
2023-04-30T00:01:54.485Z,94960.00
2023-04-30T00:02:54.589Z,94958.00
2023-04-30T00:03:54.674Z,94962.00
2023-04-30T00:04:54.553Z,94960.00
2023-04-30T00:05:54.638Z,94960.00
2023-04-30T00:06:54.668Z,94962.00
2023-04-30T00:07:54.727Z,94962.00
2023-04-30T00:08:54.797Z,94964.00
2023-04-30T00:09:55.152Z,94962.00
2023-04-30T00:10:54.912Z,94964.00
2023-04-30T00:11:55.019Z,94966.00
2023-04-30T00:12:54.921Z,94964.00
2023-04-30T00:13:54.926Z,94966.00
2023-04-30T00:14:54.976Z,94966.00
2023-04-30T00:15:55.063Z,94968.00
2023-04-30T00:16:55.021Z,94968.00
2023-04-30T00:17:55.169Z,94968.00
2023-04-30T00:18:55.172Z,94968.00
2023-04-30T00:19:55.495Z,94970.00
2023-04-30T00:20:55.284Z,94970.00
2023-04-30T00:21:55.290Z,94970.00
2023-04-30T00:22:55.401Z,94970.00
2023-04-30T00:23:55.457Z,94972.00
2023-04-30T00:24:55.514Z,94972.00
2023-04-30T00:25:55.515Z,94972.00
2023-04-30T00:26:55.584Z,94974.00
2023-04-30T00:27:55.632Z,94972.00
2023-04-30T00:28:55.691Z,94970.00
2023-04-30T00:29:55.904Z,94970.00
2023-04-30T00:30:55.804Z,94970.00
2023-04-30T00:31:55.849Z,94970.00
2023-04-30T00:32:55.872Z,94970.00
2023-04-30T00:33:55.887Z,94970.00
2023-04-30T00:34:55.930Z,94966.00
2023-04-30T00:35:55.934Z,94966.00
2023-04-30T00:36:55.981Z,94968.00
2023-04-30T00:37:56.019Z,94966.00
2023-04-30T00:38:55.991Z,94966.00
2023-04-30T00:39:56.176Z,94968.00
2023-04-30T00:40:56.052Z,94970.00
2023-04-30T00:41:56.084Z,94968.00
2023-04-30T00:42:56.153Z,94970.00
2023-04-30T00:43:56.111Z,94970.00
2023-04-30T00:44:56.161Z,94972.00
2023-04-30T00:45:56.233Z,94974.00
2023-04-30T00:46:56.321Z,94974.00
2023-04-30T00:47:56.366Z,94974.00
2023-04-30T00:48:56.374Z,94970.00
2023-04-30T00:49:56.570Z,94974.00
2023-04-30T00:50:56.474Z,94974.00
2023-04-30T00:51:56.568Z,94978.00
2023-04-30T00:52:56.613Z,94976.00
2023-04-30T00:53:56.644Z,94976.00
2023-04-30T00:54:56.683Z,94972.00
2023-04-30T00:55:56.693Z,94970.00
2023-04-30T00:56:56.767Z,94968.00
2023-04-30T00:57:56.809Z,94972.00
2023-04-30T00:58:56.876Z,94966.00
2023-04-30T00:59:56.970Z,94968.00
2023-04-30T01:00:56.957Z,94968.00
2023-04-30T01:01:57.017Z,94970.00
2023-04-30T01:02:57.125Z,94968.00
2023-04-30T01:03:57.135Z,94970.00
2023-04-30T01:04:57.153Z,94968.00
2023-04-30T01:05:57.232Z,94968.00
2023-04-30T01:06:57.200Z,94968.00
2023-04-30T01:07:57.236Z,94964.00
2023-04-30T01:08:57.237Z,94968.00
2023-04-30T01:09:57.276Z,94968.00
2023-04-30T01:10:57.404Z,94960.00
2023-04-30T01:11:57.352Z,94966.00
2023-04-30T01:12:57.421Z,94958.00
2023-04-30T01:13:57.443Z,94958.00
2023-04-30T01:14:57.519Z,94958.00
2023-04-30T01:15:57.609Z,94964.00
2023-04-30T01:16:57.602Z,94960.00
2023-04-30T01:17:57.801Z,94960.00
2023-04-30T01:18:57.886Z,94962.00
2023-04-30T01:19:57.807Z,94962.00
2023-04-30T01:20:57.844Z,94964.00
2023-04-30T01:21:57.883Z,94962.00
2023-04-30T01:22:57.959Z,94962.00
2023-04-30T01:23:57.994Z,94962.00
2023-04-30T01:24:58.053Z,94962.00
2023-04-30T01:25:58.145Z,94962.00
2023-04-30T01:26:58.169Z,94964.00
2023-04-30T01:27:58.228Z,94966.00
2023-04-30T01:28:58.275Z,94966.00
2023-04-30T01:29:58.274Z,94968.00
2023-04-30T01:30:58.285Z,94968.00
2023-04-30T01:31:58.348Z,94968.00
2023-04-30T01:32:58.457Z,94964.00
2023-04-30T01:33:58.437Z,94970.00
2023-04-30T01:34:58.928Z,94968.00
2023-04-30T01:35:58.578Z,94970.00
2023-04-30T01:36:58.601Z,94968.00
2023-04-30T01:37:58.669Z,94964.00
2023-04-30T01:38:58.721Z,94966.00
2023-04-30T01:39:58.795Z,94964.00
2023-04-30T01:40:58.832Z,94966.00
2023-04-30T01:41:58.880Z,94964.00
2023-04-30T01:42:58.883Z,94966.00
2023-04-30T01:43:58.867Z,94966.00
2023-04-30T01:44:58.939Z,94968.00
2023-04-30T01:45:58.851Z,94966.00
2023-04-30T01:46:58.838Z,94968.00
2023-04-30T01:47:58.951Z,94968.00
2023-04-30T01:48:58.893Z,94970.00
2023-04-30T01:49:58.959Z,94972.00
2023-04-30T01:50:59.015Z,94972.00
2023-04-30T01:51:59.094Z,94972.00
2023-04-30T01:52:59.118Z,94974.00
2023-04-30T01:53:59.225Z,94972.00
2023-04-30T01:54:59.233Z,94970.00
2023-04-30T01:55:59.315Z,94972.00
2023-04-30T01:56:59.364Z,94972.00
2023-04-30T01:57:59.475Z,94974.00
2023-04-30T01:58:59.471Z,94972.00
2023-04-30T01:59:59.506Z,94970.00
2023-04-30T02:00:59.585Z,94970.00
2023-04-30T02:01:59.749Z,94968.00
2023-04-30T02:02:59.830Z,94968.00
2023-04-30T02:03:59.871Z,94968.00
2023-04-30T02:04:59.836Z,94968.00
2023-04-30T02:05:59.938Z,94968.00
2023-04-30T02:06:59.974Z,94968.00
2023-04-30T02:08:00.046Z,94968.00
2023-04-30T02:09:00.076Z,94968.00
2023-04-30T02:10:00.177Z,94968.00
2023-04-30T02:11:00.204Z,94968.00
2023-04-30T02:12:00.244Z,94968.00
2023-04-30T02:13:00.291Z,94970.00
2023-04-30T02:14:00.355Z,94970.00
2023-04-30T02:15:00.362Z,94970.00
2023-04-30T02:16:00.414Z,94972.00
2023-04-30T02:17:00.348Z,94972.00
2023-04-30T02:18:00.411Z,94970.00
2023-04-30T02:19:00.327Z,94970.00
2023-04-30T02:20:00.358Z,94970.00
2023-04-30T02:21:00.402Z,94972.00
2023-04-30T02:22:00.464Z,94972.00
2023-04-30T02:23:00.543Z,94974.00
2023-04-30T02:24:00.584Z,94972.00
2023-04-30T02:25:00.667Z,94974.00
2023-04-30T02:26:00.676Z,94974.00
2023-04-30T02:27:00.718Z,94976.00
2023-04-30T02:28:00.795Z,94976.00
2023-04-30T02:29:00.893Z,94980.00
2023-04-30T02:30:00.904Z,94980.00
2023-04-30T02:31:00.946Z,94982.00
2023-04-30T02:32:00.999Z,94982.00
2023-04-30T02:33:00.967Z,94984.00
2023-04-30T02:34:00.934Z,94986.00
2023-04-30T02:35:01.013Z,94986.00
2023-04-30T02:36:01.047Z,94988.00
2023-04-30T02:37:01.127Z,94984.00
2023-04-30T02:38:01.194Z,94984.00
2023-04-30T02:39:01.288Z,94984.00
2023-04-30T02:40:01.318Z,94984.00
2023-04-30T02:41:01.406Z,94984.00
2023-04-30T02:42:01.418Z,94984.00
2023-04-30T02:43:01.506Z,94984.00
2023-04-30T02:44:01.584Z,94984.00
2023-04-30T02:45:01.619Z,94982.00
2023-04-30T02:46:01.733Z,94984.00
2023-04-30T02:47:01.741Z,94984.00
2023-04-30T02:48:01.858Z,94984.00
2023-04-30T02:49:01.872Z,94982.00
2023-04-30T02:50:01.945Z,94980.00
2023-04-30T02:51:01.984Z,94978.00
2023-04-30T02:52:02.038Z,94978.00
2023-04-30T02:53:02.153Z,94976.00
2023-04-30T02:54:02.198Z,94976.00
2023-04-30T02:55:02.254Z,94976.00
2023-04-30T02:56:02.373Z,94972.00
2023-04-30T02:57:02.387Z,94972.00
2023-04-30T02:58:02.445Z,94974.00
2023-04-30T02:59:02.487Z,94972.00
2023-04-30T03:00:02.559Z,94972.00
2023-04-30T03:01:02.675Z,94972.00
2023-04-30T03:02:02.772Z,94970.00
2023-04-30T03:03:02.878Z,94968.00
2023-04-30T03:04:02.817Z,94968.00
2023-04-30T03:05:02.905Z,94968.00
2023-04-30T03:06:02.981Z,94970.00
2023-04-30T03:07:02.996Z,94972.00
2023-04-30T03:08:03.050Z,94972.00
2023-04-30T03:09:03.127Z,94972.00
2023-04-30T03:10:03.178Z,94974.00
2023-04-30T03:11:03.231Z,94974.00
2023-04-30T03:12:03.284Z,94976.00
2023-04-30T03:13:03.366Z,94974.00
2023-04-30T03:14:03.466Z,94976.00
2023-04-30T03:15:03.461Z,94976.00
2023-04-30T03:16:03.646Z,94974.00
2023-04-30T03:17:03.624Z,94974.00
2023-04-30T03:18:03.686Z,94974.00
2023-04-30T03:19:03.746Z,94974.00
2023-04-30T03:20:03.783Z,94976.00
2023-04-30T03:21:03.857Z,94976.00
2023-04-30T03:22:03.915Z,94974.00
2023-04-30T03:23:03.978Z,94974.00
2023-04-30T03:24:04.059Z,94974.00
2023-04-30T03:25:04.148Z,94974.00
2023-04-30T03:26:04.079Z,94974.00
2023-04-30T03:27:04.098Z,94976.00
2023-04-30T03:28:04.167Z,94974.00
2023-04-30T03:29:04.229Z,94972.00
2023-04-30T03:30:04.292Z,94974.00
2023-04-30T03:31:04.348Z,94970.00
2023-04-30T03:32:04.411Z,94974.00
2023-04-30T03:33:04.533Z,94972.00
2023-04-30T03:34:04.525Z,94976.00
2023-04-30T03:35:04.623Z,94976.00
2023-04-30T03:36:04.688Z,94976.00
2023-04-30T03:37:04.642Z,94974.00
2023-04-30T03:38:04.582Z,94972.00
2023-04-30T03:39:04.590Z,94970.00
2023-04-30T03:40:04.631Z,94970.00
2023-04-30T03:41:04.597Z,94972.00
2023-04-30T03:42:04.655Z,94968.00
2023-04-30T03:43:04.753Z,94966.00
2023-04-30T03:44:04.727Z,94966.00
2023-04-30T03:45:04.823Z,94966.00
2023-04-30T03:46:04.921Z,94964.00
2023-04-30T03:47:04.939Z,94966.00
2023-04-30T03:48:05.052Z,94966.00
2023-04-30T03:49:05.058Z,94968.00
2023-04-30T03:50:05.169Z,94968.00
2023-04-30T03:51:05.146Z,94970.00
2023-04-30T03:52:05.237Z,94970.00
2023-04-30T03:53:05.277Z,94972.00
2023-04-30T03:54:05.345Z,94974.00
2023-04-30T03:55:05.409Z,94976.00
2023-04-30T03:56:05.405Z,94978.00
2023-04-30T03:57:05.561Z,94980.00
2023-04-30T03:58:05.524Z,94982.00
2023-04-30T03:59:05.612Z,94982.00
2023-04-30T04:00:05.651Z,94982.00
2023-04-30T04:01:05.723Z,94980.00
2023-04-30T04:02:05.773Z,94980.00
2023-04-30T04:03:05.846Z,94980.00
2023-04-30T04:04:05.936Z,94980.00
2023-04-30T04:05:05.996Z,94978.00
2023-04-30T04:06:06.190Z,94982.00
2023-04-30T04:07:06.078Z,94976.00
2023-04-30T04:08:06.153Z,94976.00
2023-04-30T04:09:06.214Z,94976.00
2023-04-30T04:10:06.326Z,94974.00
2023-04-30T04:11:06.305Z,94974.00
2023-04-30T04:12:06.336Z,94974.00
2023-04-30T04:13:06.452Z,94974.00
2023-04-30T04:14:06.528Z,94974.00
2023-04-30T04:15:06.551Z,94972.00
2023-04-30T04:16:06.692Z,94974.00
2023-04-30T04:17:06.696Z,94974.00
2023-04-30T04:18:06.781Z,94974.00
2023-04-30T04:19:06.774Z,94972.00
2023-04-30T04:20:06.876Z,94974.00
2023-04-30T04:21:06.930Z,94972.00
2023-04-30T04:22:07.048Z,94972.00
2023-04-30T04:23:07.109Z,94972.00
2023-04-30T04:24:07.123Z,94974.00
2023-04-30T04:25:07.201Z,94974.00
2023-04-30T04:26:07.252Z,94976.00
2023-04-30T04:27:07.334Z,94976.00
2023-04-30T04:28:07.359Z,94976.00
2023-04-30T04:29:07.471Z,94976.00
2023-04-30T04:30:07.510Z,94978.00
2023-04-30T04:31:07.552Z,94974.00
2023-04-30T04:32:07.737Z,94978.00
2023-04-30T04:33:07.720Z,94976.00
2023-04-30T04:34:07.740Z,94974.00
2023-04-30T04:35:07.794Z,94976.00
2023-04-30T04:36:07.896Z,94976.00
2023-04-30T04:37:07.915Z,94976.00
2023-04-30T04:38:08.030Z,94976.00
2023-04-30T04:39:08.083Z,94976.00
2023-04-30T04:40:08.075Z,94978.00
2023-04-30T04:41:08.202Z,94978.00
2023-04-30T04:42:08.260Z,94980.00
2023-04-30T04:43:08.301Z,94978.00
2023-04-30T04:44:08.372Z,94978.00
2023-04-30T04:45:08.396Z,94978.00
2023-04-30T04:46:08.529Z,94978.00
2023-04-30T04:47:08.545Z,94978.00
2023-04-30T04:48:08.681Z,94980.00
2023-04-30T04:49:08.673Z,94978.00
2023-04-30T04:50:08.737Z,94978.00
2023-04-30T04:51:08.759Z,94980.00
2023-04-30T04:52:08.850Z,94980.00
2023-04-30T04:53:08.892Z,94980.00
2023-04-30T04:54:08.969Z,94980.00
2023-04-30T04:55:08.992Z,94978.00
2023-04-30T04:56:09.077Z,94978.00
2023-04-30T04:57:09.174Z,94980.00
2023-04-30T04:58:09.189Z,94980.00
2023-04-30T04:59:09.231Z,94980.00
2023-04-30T05:00:09.348Z,94980.00
2023-04-30T05:01:09.409Z,94980.00
2023-04-30T05:02:09.567Z,94980.00
2023-04-30T05:03:09.473Z,94978.00
2023-04-30T05:04:09.478Z,94978.00
2023-04-30T05:05:09.401Z,94980.00
2023-04-30T05:06:09.391Z,94978.00
2023-04-30T05:07:09.398Z,94976.00
2023-04-30T05:08:09.452Z,94976.00
2023-04-30T05:09:09.522Z,94976.00
2023-04-30T05:10:09.512Z,94982.00
2023-04-30T05:11:09.582Z,94980.00
2023-04-30T05:12:09.624Z,94984.00
2023-04-30T05:13:09.662Z,94982.00
2023-04-30T05:14:09.676Z,94986.00
2023-04-30T05:15:09.746Z,94984.00
2023-04-30T05:16:09.820Z,94986.00
2023-04-30T05:17:09.829Z,94988.00
2023-04-30T05:18:09.951Z,94982.00
2023-04-30T05:19:09.927Z,94986.00
2023-04-30T05:20:09.953Z,94984.00
2023-04-30T05:21:10.016Z,94984.00
2023-04-30T05:22:10.082Z,94980.00
2023-04-30T05:23:10.184Z,94978.00
2023-04-30T05:24:10.182Z,94978.00
2023-04-30T05:25:10.234Z,94978.00
2023-04-30T05:26:10.305Z,94978.00
2023-04-30T05:27:10.345Z,94978.00
2023-04-30T05:28:10.423Z,94980.00
2023-04-30T05:29:10.531Z,94978.00
2023-04-30T05:30:10.543Z,94978.00
2023-04-30T05:31:10.541Z,94976.00
2023-04-30T05:32:10.621Z,94976.00
2023-04-30T05:33:10.751Z,94974.00
2023-04-30T05:34:10.765Z,94974.00
2023-04-30T05:35:10.764Z,94976.00
2023-04-30T05:36:10.809Z,94976.00
2023-04-30T05:37:10.886Z,94974.00
2023-04-30T05:38:10.997Z,94976.00
2023-04-30T05:39:10.993Z,94982.00
2023-04-30T05:40:11.056Z,94982.00
2023-04-30T05:41:11.122Z,94980.00
2023-04-30T05:42:11.166Z,94982.00
2023-04-30T05:43:11.209Z,94980.00
2023-04-30T05:44:11.275Z,94982.00
2023-04-30T05:45:11.339Z,94980.00
2023-04-30T05:46:11.473Z,94980.00
2023-04-30T05:47:11.460Z,94980.00
2023-04-30T05:48:11.523Z,94976.00
2023-04-30T05:49:11.547Z,94980.00
2023-04-30T05:50:11.635Z,94980.00
2023-04-30T05:51:11.587Z,94978.00
2023-04-30T05:52:11.644Z,94980.00
2023-04-30T05:53:11.704Z,94980.00
2023-04-30T05:54:11.755Z,94982.00
2023-04-30T05:55:11.759Z,94980.00
2023-04-30T05:56:11.760Z,94984.00
2023-04-30T05:57:11.873Z,94986.00
2023-04-30T05:58:11.892Z,94984.00
2023-04-30T05:59:11.962Z,94982.00
2023-04-30T06:00:11.998Z,94984.00
2023-04-30T06:01:12.075Z,94984.00
2023-04-30T06:02:12.174Z,94984.00
2023-04-30T06:03:12.163Z,94984.00
2023-04-30T06:04:12.223Z,94982.00
2023-04-30T06:05:14.639Z,94982.00
2023-04-30T06:06:12.323Z,94982.00
2023-04-30T06:07:12.247Z,94984.00
2023-04-30T06:08:12.268Z,94980.00
2023-04-30T06:09:12.226Z,94982.00
2023-04-30T06:10:12.265Z,94984.00
2023-04-30T06:11:12.300Z,94984.00
2023-04-30T06:12:12.256Z,94984.00
2023-04-30T06:13:12.268Z,94988.00
2023-04-30T06:14:12.273Z,94988.00
2023-04-30T06:15:12.208Z,94984.00
2023-04-30T06:16:12.249Z,94988.00
2023-04-30T06:17:12.219Z,94988.00
2023-04-30T06:18:12.192Z,94986.00
2023-04-30T06:19:12.199Z,94986.00
2023-04-30T06:20:12.203Z,94988.00
2023-04-30T06:21:12.223Z,94986.00
2023-04-30T06:22:12.155Z,94986.00
2023-04-30T06:23:12.170Z,94986.00
2023-04-30T06:24:12.126Z,94986.00
2023-04-30T06:25:12.138Z,94990.00
2023-04-30T06:26:12.143Z,94988.00
2023-04-30T06:27:12.102Z,94986.00
2023-04-30T06:28:12.098Z,94988.00
2023-04-30T06:29:12.095Z,94988.00
2023-04-30T06:30:12.109Z,94988.00
2023-04-30T06:31:12.130Z,94990.00
2023-04-30T06:32:12.091Z,94990.00
2023-04-30T06:33:12.085Z,94992.00
2023-04-30T06:34:12.087Z,94992.00
2023-04-30T06:35:12.059Z,94990.00
2023-04-30T06:36:12.023Z,94992.00
2023-04-30T06:37:12.063Z,94992.00
2023-04-30T06:38:12.040Z,94994.00
2023-04-30T06:39:12.019Z,94992.00
2023-04-30T06:40:12.107Z,94992.00
2023-04-30T06:41:12.079Z,94994.00
2023-04-30T06:42:12.083Z,94996.00
2023-04-30T06:43:12.156Z,94992.00
2023-04-30T06:44:12.168Z,94992.00
2023-04-30T06:45:12.214Z,94992.00
2023-04-30T06:46:12.291Z,94994.00
2023-04-30T06:47:12.254Z,94992.00
2023-04-30T06:48:12.290Z,94996.00
2023-04-30T06:49:12.288Z,94996.00
2023-04-30T06:50:12.336Z,94996.00
2023-04-30T06:51:12.416Z,94996.00
2023-04-30T06:52:12.445Z,94996.00
2023-04-30T06:53:12.529Z,94994.00
2023-04-30T06:54:12.553Z,94996.00
2023-04-30T06:55:12.551Z,94992.00
2023-04-30T06:56:12.584Z,94996.00
2023-04-30T06:57:12.601Z,94994.00
2023-04-30T06:58:12.677Z,94994.00
2023-04-30T06:59:12.672Z,94996.00
2023-04-30T07:00:12.721Z,94996.00
2023-04-30T07:01:12.820Z,94994.00
2023-04-30T07:02:12.832Z,94994.00
2023-04-30T07:03:13.000Z,94994.00
2023-04-30T07:04:12.865Z,94992.00
2023-04-30T07:05:12.872Z,94990.00
2023-04-30T07:06:12.900Z,94992.00
2023-04-30T07:07:12.858Z,94990.00
2023-04-30T07:08:12.940Z,94992.00
2023-04-30T07:09:19.649Z,94990.00
2023-04-30T07:10:12.877Z,94988.00
2023-04-30T07:11:12.883Z,94988.00
2023-04-30T07:12:12.962Z,94986.00
2023-04-30T07:13:12.878Z,94990.00
2023-04-30T07:14:12.882Z,94988.00
2023-04-30T07:15:12.896Z,94986.00
2023-04-30T07:16:12.944Z,94990.00
2023-04-30T07:17:12.819Z,94984.00
2023-04-30T07:18:12.907Z,94984.00
2023-04-30T07:19:12.810Z,94986.00
2023-04-30T07:20:12.859Z,94984.00
2023-04-30T07:21:12.825Z,94986.00
2023-04-30T07:22:12.827Z,94986.00
2023-04-30T07:23:12.846Z,94984.00
2023-04-30T07:24:12.793Z,94984.00
2023-04-30T07:25:12.766Z,94986.00
2023-04-30T07:26:12.798Z,94988.00
2023-04-30T07:27:12.815Z,94986.00
2023-04-30T07:28:12.766Z,94984.00
2023-04-30T07:29:12.820Z,94982.00
2023-04-30T07:30:12.786Z,94986.00
2023-04-30T07:31:12.756Z,94984.00
2023-04-30T07:32:12.740Z,94986.00
2023-04-30T07:33:12.802Z,94984.00
2023-04-30T07:34:12.716Z,94980.00
2023-04-30T07:35:12.765Z,94978.00
2023-04-30T07:36:12.749Z,94980.00
2023-04-30T07:37:12.739Z,94978.00
2023-04-30T07:38:12.686Z,94978.00
2023-04-30T07:39:12.707Z,94976.00
2023-04-30T07:40:15.433Z,94974.00
2023-04-30T07:41:13.694Z,94974.00
2023-04-30T07:42:12.673Z,94976.00
2023-04-30T07:43:12.681Z,94976.00
2023-04-30T07:44:12.640Z,94974.00
2023-04-30T07:45:12.657Z,94974.00
2023-04-30T07:46:12.654Z,94976.00
2023-04-30T07:47:12.640Z,94972.00
2023-04-30T07:48:12.635Z,94974.00
2023-04-30T07:49:12.614Z,94972.00
2023-04-30T07:50:12.633Z,94974.00
2023-04-30T07:51:12.617Z,94970.00
2023-04-30T07:52:12.648Z,94974.00
2023-04-30T07:53:12.634Z,94976.00
2023-04-30T07:54:12.566Z,94976.00
2023-04-30T07:55:12.590Z,94974.00
2023-04-30T07:56:12.580Z,94976.00
2023-04-30T07:57:12.563Z,94974.00
2023-04-30T07:58:12.567Z,94978.00
2023-04-30T07:59:12.580Z,94976.00
2023-04-30T08:00:12.590Z,94976.00
2023-04-30T08:01:12.583Z,94972.00
2023-04-30T08:02:12.605Z,94974.00
2023-04-30T08:03:12.595Z,94970.00
2023-04-30T08:04:12.652Z,94970.00
2023-04-30T08:05:12.535Z,94970.00
2023-04-30T08:06:12.550Z,94972.00
2023-04-30T08:07:12.528Z,94972.00
2023-04-30T08:08:12.466Z,94974.00
2023-04-30T08:09:12.476Z,94972.00
2023-04-30T08:10:12.479Z,94970.00
2023-04-30T08:11:12.466Z,94972.00
2023-04-30T08:12:12.454Z,94974.00
2023-04-30T08:13:12.462Z,94972.00
2023-04-30T08:14:12.461Z,94974.00
2023-04-30T08:15:12.449Z,94972.00
2023-04-30T08:16:12.454Z,94974.00
2023-04-30T08:17:12.434Z,94972.00
2023-04-30T08:18:12.504Z,94968.00
2023-04-30T08:19:12.418Z,94968.00
2023-04-30T08:20:12.410Z,94968.00
2023-04-30T08:21:12.395Z,94970.00
2023-04-30T08:22:12.428Z,94968.00
2023-04-30T08:23:12.435Z,94966.00
2023-04-30T08:24:12.389Z,94964.00
2023-04-30T08:25:12.387Z,94964.00
2023-04-30T08:26:12.347Z,94962.00
2023-04-30T08:27:12.348Z,94960.00
2023-04-30T08:28:12.361Z,94958.00
2023-04-30T08:29:12.322Z,94958.00
2023-04-30T08:30:12.381Z,94958.00
2023-04-30T08:31:12.359Z,94956.00
2023-04-30T08:32:12.484Z,94952.00
2023-04-30T08:33:12.326Z,94956.00
2023-04-30T08:34:12.297Z,94952.00
2023-04-30T08:35:12.302Z,94954.00
2023-04-30T08:36:12.359Z,94954.00
2023-04-30T08:37:12.357Z,94956.00
2023-04-30T08:38:12.331Z,94960.00
2023-04-30T08:39:12.376Z,94958.00
2023-04-30T08:40:12.403Z,94954.00
2023-04-30T08:41:12.374Z,94958.00
2023-04-30T08:42:12.443Z,94956.00
2023-04-30T08:43:12.516Z,94954.00
2023-04-30T08:44:12.478Z,94952.00
2023-04-30T08:45:12.516Z,94956.00
2023-04-30T08:46:12.540Z,94954.00
2023-04-30T08:47:12.527Z,94952.00
2023-04-30T08:48:12.603Z,94950.00
2023-04-30T08:49:12.617Z,94952.00
2023-04-30T08:50:12.620Z,94952.00
2023-04-30T08:51:12.633Z,94950.00
2023-04-30T08:52:12.656Z,94947.00
2023-04-30T08:53:12.678Z,94950.00
2023-04-30T08:54:12.746Z,94945.00
2023-04-30T08:55:12.783Z,94945.00
2023-04-30T08:56:12.848Z,94943.00
2023-04-30T08:57:12.922Z,94947.00
2023-04-30T08:58:12.969Z,94945.00
2023-04-30T08:59:13.016Z,94947.00
2023-04-30T09:00:13.115Z,94947.00
2023-04-30T09:01:13.129Z,94947.00
2023-04-30T09:02:13.180Z,94945.00
2023-04-30T09:03:13.148Z,94945.00
2023-04-30T09:04:13.379Z,94949.00
2023-04-30T09:05:13.128Z,94945.00
2023-04-30T09:06:13.169Z,94945.00
2023-04-30T09:07:13.137Z,94947.00
2023-04-30T09:08:13.189Z,94945.00
2023-04-30T09:09:13.258Z,94949.00
2023-04-30T09:10:13.368Z,94949.00
2023-04-30T09:11:13.361Z,94949.00
2023-04-30T09:12:13.525Z,94945.00
2023-04-30T09:13:13.493Z,94949.00
2023-04-30T09:14:13.525Z,94949.00
2023-04-30T09:15:13.601Z,94949.00
2023-04-30T09:16:13.727Z,94947.00
2023-04-30T09:17:13.716Z,94947.00
2023-04-30T09:18:13.888Z,94947.00
2023-04-30T09:19:13.852Z,94945.00
2023-04-30T09:20:13.937Z,94945.00
2023-04-30T09:21:13.952Z,94943.00
2023-04-30T09:22:13.954Z,94939.00
2023-04-30T09:23:13.993Z,94939.00
2023-04-30T09:24:14.005Z,94937.00
2023-04-30T09:25:14.129Z,94941.00
2023-04-30T09:26:14.178Z,94937.00
2023-04-30T09:27:14.191Z,94935.00
2023-04-30T09:28:14.247Z,94933.00
2023-04-30T09:29:14.431Z,94933.00
2023-04-30T09:30:14.395Z,94929.00
2023-04-30T09:31:14.472Z,94929.00
2023-04-30T09:32:14.483Z,94925.00
2023-04-30T09:33:14.599Z,94925.00
2023-04-30T09:34:14.585Z,94923.00
2023-04-30T09:35:14.586Z,94923.00
2023-04-30T09:36:14.673Z,94923.00
2023-04-30T09:37:14.711Z,94925.00
2023-04-30T09:38:14.789Z,94921.00
2023-04-30T09:39:16.218Z,94921.00
2023-04-30T09:40:14.840Z,94921.00
2023-04-30T09:41:14.904Z,94917.00
2023-04-30T09:42:14.908Z,94917.00
2023-04-30T09:43:14.966Z,94915.00
2023-04-30T09:44:14.966Z,94915.00
2023-04-30T09:45:15.088Z,94913.00
2023-04-30T09:46:15.229Z,94911.00
2023-04-30T09:47:15.072Z,94915.00
2023-04-30T09:48:17.705Z,94913.00
2023-04-30T09:49:15.170Z,94911.00
2023-04-30T09:50:15.177Z,94904.00
2023-04-30T09:51:15.185Z,94902.00
2023-04-30T09:52:15.127Z,94900.00
2023-04-30T09:53:15.118Z,94898.00
2023-04-30T09:54:15.135Z,94898.00
2023-04-30T09:55:15.190Z,94896.00
2023-04-30T09:56:15.105Z,94894.00
2023-04-30T09:57:15.122Z,94894.00
2023-04-30T09:58:15.124Z,94894.00
2023-04-30T09:59:15.133Z,94886.00
2023-04-30T10:00:15.082Z,94886.00
2023-04-30T10:01:15.197Z,94888.00
2023-04-30T10:02:15.053Z,94882.00
2023-04-30T10:03:15.134Z,94878.00
2023-04-30T10:04:15.107Z,94880.00
2023-04-30T10:05:15.079Z,94878.00
2023-04-30T10:06:15.104Z,94878.00
2023-04-30T10:07:16.086Z,94878.00
2023-04-30T10:08:15.017Z,94878.00
2023-04-30T10:09:15.027Z,94878.00
2023-04-30T10:10:15.064Z,94872.00
2023-04-30T10:11:15.076Z,94874.00
2023-04-30T10:12:15.027Z,94874.00
2023-04-30T10:13:15.023Z,94868.00
2023-04-30T10:14:15.065Z,94864.00
2023-04-30T10:15:15.144Z,94862.00
2023-04-30T10:16:15.158Z,94860.00
2023-04-30T10:17:15.188Z,94858.00
2023-04-30T10:18:15.285Z,94860.00
2023-04-30T10:19:15.269Z,94858.00
2023-04-30T10:20:15.317Z,94858.00
2023-04-30T10:21:15.386Z,94857.00
2023-04-30T10:22:15.390Z,94857.00
2023-04-30T10:23:15.445Z,94853.00
2023-04-30T10:24:15.514Z,94851.00
2023-04-30T10:25:15.514Z,94853.00
2023-04-30T10:26:15.586Z,94851.00
2023-04-30T10:27:15.559Z,94847.00
2023-04-30T10:28:15.641Z,94847.00
2023-04-30T10:29:15.646Z,94843.00
2023-04-30T10:30:15.692Z,94845.00
2023-04-30T10:31:15.749Z,94843.00
2023-04-30T10:32:15.825Z,94841.00
2023-04-30T10:33:16.842Z,94837.00
2023-04-30T10:34:15.889Z,94839.00
2023-04-30T10:35:15.876Z,94835.00
2023-04-30T10:36:15.932Z,94837.00
2023-04-30T10:37:16.001Z,94835.00
2023-04-30T10:38:16.004Z,94833.00
2023-04-30T10:39:16.070Z,94831.00
2023-04-30T10:40:16.080Z,94831.00
2023-04-30T10:41:16.128Z,94825.00
2023-04-30T10:42:16.181Z,94823.00
2023-04-30T10:43:16.210Z,94829.00
2023-04-30T10:44:16.260Z,94829.00
2023-04-30T10:45:16.260Z,94827.00
2023-04-30T10:46:16.341Z,94827.00
2023-04-30T10:47:16.365Z,94825.00
2023-04-30T10:48:16.511Z,94823.00
2023-04-30T10:49:16.502Z,94821.00
2023-04-30T10:50:16.540Z,94817.00
2023-04-30T10:51:16.625Z,94821.00
2023-04-30T10:52:16.653Z,94819.00
2023-04-30T10:53:16.734Z,94817.00
2023-04-30T10:54:16.733Z,94815.00
2023-04-30T10:55:16.782Z,94815.00
2023-04-30T10:56:16.861Z,94811.00
2023-04-30T10:57:16.864Z,94811.00
2023-04-30T10:58:16.865Z,94808.00
2023-04-30T10:59:17.014Z,94810.00
2023-04-30T11:00:16.926Z,94806.00
2023-04-30T11:01:17.034Z,94804.00
2023-04-30T11:02:17.046Z,94802.00
2023-04-30T11:03:17.036Z,94802.00
2023-04-30T11:04:17.065Z,94800.00
2023-04-30T11:05:17.302Z,94798.00
2023-04-30T11:06:17.172Z,94796.00
2023-04-30T11:07:17.183Z,94792.00
2023-04-30T11:08:17.245Z,94794.00
2023-04-30T11:09:17.249Z,94794.00
2023-04-30T11:10:17.262Z,94790.00
2023-04-30T11:11:17.317Z,94790.00
2023-04-30T11:12:17.375Z,94786.00
2023-04-30T11:13:17.382Z,94782.00
2023-04-30T11:14:17.435Z,94786.00
2023-04-30T11:15:17.501Z,94786.00
2023-04-30T11:16:17.597Z,94782.00
2023-04-30T11:17:17.557Z,94780.00
2023-04-30T11:18:17.657Z,94780.00
2023-04-30T11:19:17.638Z,94782.00
2023-04-30T11:20:17.633Z,94778.00
2023-04-30T11:21:17.661Z,94778.00
2023-04-30T11:22:17.744Z,94776.00
2023-04-30T11:23:25.209Z,94774.00
2023-04-30T11:24:18.777Z,94772.00
2023-04-30T11:25:17.775Z,94778.00
2023-04-30T11:26:17.788Z,94772.00
2023-04-30T11:27:17.737Z,94772.00
2023-04-30T11:28:17.766Z,94772.00
2023-04-30T11:29:17.799Z,94770.00
2023-04-30T11:30:17.755Z,94768.00
2023-04-30T11:31:17.774Z,94766.00
2023-04-30T11:32:17.706Z,94760.00
2023-04-30T11:33:17.721Z,94762.00
2023-04-30T11:34:17.729Z,94762.00
2023-04-30T11:35:17.686Z,94762.00
2023-04-30T11:36:17.710Z,94760.00
2023-04-30T11:37:17.751Z,94758.00
2023-04-30T11:38:17.816Z,94756.00
2023-04-30T11:39:17.865Z,94760.00
2023-04-30T11:40:17.906Z,94756.00
2023-04-30T11:41:17.938Z,94758.00
2023-04-30T11:42:17.991Z,94758.00
2023-04-30T11:43:18.041Z,94755.00
2023-04-30T11:44:18.100Z,94755.00
2023-04-30T11:45:18.275Z,94755.00